Bombay, New York
Current Conditions -  °F | °C
As of 8:15 AM on Sunday 23 Nov 2014 (Local Time) from KMSS Reporting Station
Moderate Fog Moderate Fog  
Wind Chill: 38°   Ceiling: 300
Heat Index: 41°   Visibility: 0.5mi
Dew Point: 41°   Wind: 5mph
Humidity: 100%   Direction: 210°SSW
Pressure: 30.04"   Gusts: NA
Location:  44.94°N, 74.57°W
Report Text: KMSS 231315Z AUTO 21004KT 1/2SM FG OVC003 05/05 A3004 RMK AO2 T00500050
Loading
Personal Weather Stations






























Interactive Weather Map New forecast layout! Learn more

10-Day Weather Forecast

Advertisements
Track Severe Weather on mobile